sensor_id;sensor_type;location;lat;lon;timestamp;temperature;humidity
67275;DHT22;55463;52.324;5.122;2023-07-02T00:00:07;16.62;77.90
67275;DHT22;55463;52.324;5.122;2023-07-02T00:02:33;16.60;77.80
67275;DHT22;55463;52.324;5.122;2023-07-02T00:04:58;16.53;78.01
67275;DHT22;55463;52.324;5.122;2023-07-02T00:07:24;16.53;77.87
67275;DHT22;55463;52.324;5.122;2023-07-02T00:09:51;16.51;77.82
67275;DHT22;55463;52.324;5.122;2023-07-02T00:12:16;16.42;77.82
67275;DHT22;55463;52.324;5.122;2023-07-02T00:14:42;16.45;77.91
67275;DHT22;55463;52.324;5.122;2023-07-02T00:17:07;16.36;77.43
67275;DHT22;55463;52.324;5.122;2023-07-02T00:19:33;16.32;77.38
67275;DHT22;55463;52.324;5.122;2023-07-02T00:21:59;16.33;76.57
67275;DHT22;55463;52.324;5.122;2023-07-02T00:24:24;16.31;77.02
67275;DHT22;55463;52.324;5.122;2023-07-02T00:26:49;16.28;77.13
67275;DHT22;55463;52.324;5.122;2023-07-02T00:29:15;16.26;76.73
67275;DHT22;55463;52.324;5.122;2023-07-02T00:31:40;16.21;77.47
67275;DHT22;55463;52.324;5.122;2023-07-02T00:34:06;16.15;77.30
67275;DHT22;55463;52.324;5.122;2023-07-02T00:36:31;16.18;75.99
67275;DHT22;55463;52.324;5.122;2023-07-02T00:38:57;16.12;76.09
67275;DHT22;55463;52.324;5.122;2023-07-02T00:41:23;16.12;76.19
67275;DHT22;55463;52.324;5.122;2023-07-02T00:43:49;16.15;75.99
67275;DHT22;55463;52.324;5.122;2023-07-02T00:46:16;16.10;75.71
67275;DHT22;55463;52.324;5.122;2023-07-02T00:48:52;16.08;76.01
67275;DHT22;55463;52.324;5.122;2023-07-02T00:51:20;16.05;75.90
67275;DHT22;55463;52.324;5.122;2023-07-02T00:53:47;16.01;76.53
67275;DHT22;55463;52.324;5.122;2023-07-02T00:56:13;15.98;75.95
67275;DHT22;55463;52.324;5.122;2023-07-02T00:58:44;16.00;75.90
67275;DHT22;55463;52.324;5.122;2023-07-02T01:01:17;16.00;76.19
67275;DHT22;55463;52.324;5.122;2023-07-02T01:04:04;15.94;76.36
67275;DHT22;55463;52.324;5.122;2023-07-02T01:06:32;15.96;76.55
67275;DHT22;55463;52.324;5.122;2023-07-02T01:09:00;15.90;76.71
67275;DHT22;55463;52.324;5.122;2023-07-02T01:11:28;15.89;76.93
67275;DHT22;55463;52.324;5.122;2023-07-02T01:14:01;15.82;76.99
67275;DHT22;55463;52.324;5.122;2023-07-02T01:16:27;15.76;77.22
67275;DHT22;55463;52.324;5.122;2023-07-02T01:18:56;15.74;77.52
67275;DHT22;55463;52.324;5.122;2023-07-02T01:21:23;15.73;77.65
67275;DHT22;55463;52.324;5.122;2023-07-02T01:23:49;15.66;77.68
67275;DHT22;55463;52.324;5.122;2023-07-02T01:26:15;15.63;77.90
67275;DHT22;55463;52.324;5.122;2023-07-02T01:28:41;15.56;78.22
67275;DHT22;55463;52.324;5.122;2023-07-02T01:31:07;15.56;78.45
67275;DHT22;55463;52.324;5.122;2023-07-02T01:33:32;15.50;78.73
67275;DHT22;55463;52.324;5.122;2023-07-02T01:35:58;15.49;79.11
67275;DHT22;55463;52.324;5.122;2023-07-02T01:38:23;15.46;79.26
67275;DHT22;55463;52.324;5.122;2023-07-02T01:40:49;15.43;79.14
67275;DHT22;55463;52.324;5.122;2023-07-02T01:43:14;15.39;79.38
67275;DHT22;55463;52.324;5.122;2023-07-02T01:45:41;15.35;79.59
67275;DHT22;55463;52.324;5.122;2023-07-02T01:48:07;15.28;79.87
67275;DHT22;55463;52.324;5.122;2023-07-02T01:50:33;15.24;80.11
67275;DHT22;55463;52.324;5.122;2023-07-02T01:52:59;15.22;79.89
67275;DHT22;55463;52.324;5.122;2023-07-02T01:55:24;15.24;79.95
67275;DHT22;55463;52.324;5.122;2023-07-02T01:57:50;15.20;80.00
67275;DHT22;55463;52.324;5.122;2023-07-02T02:00:15;15.11;79.95
67275;DHT22;55463;52.324;5.122;2023-07-02T02:02:42;15.15;79.89
67275;DHT22;55463;52.324;5.122;2023-07-02T02:05:07;15.11;79.85
67275;DHT22;55463;52.324;5.122;2023-07-02T02:07:35;15.12;79.88
67275;DHT22;55463;52.324;5.122;2023-07-02T02:10:01;15.08;79.93
67275;DHT22;55463;52.324;5.122;2023-07-02T02:12:26;15.04;80.21
67275;DHT22;55463;52.324;5.122;2023-07-02T02:14:53;14.98;80.04
67275;DHT22;55463;52.324;5.122;2023-07-02T02:17:19;14.95;80.07
67275;DHT22;55463;52.324;5.122;2023-07-02T02:19:44;14.97;79.94
67275;DHT22;55463;52.324;5.122;2023-07-02T02:22:10;14.94;79.88
67275;DHT22;55463;52.324;5.122;2023-07-02T02:24:35;14.91;80.02
67275;DHT22;55463;52.324;5.122;2023-07-02T02:27:00;14.90;79.91
67275;DHT22;55463;52.324;5.122;2023-07-02T02:29:26;14.88;79.95
67275;DHT22;55463;52.324;5.122;2023-07-02T02:31:51;14.88;80.03
67275;DHT22;55463;52.324;5.122;2023-07-02T02:34:17;14.90;79.97
67275;DHT22;55463;52.324;5.122;2023-07-02T02:36:42;14.84;80.11
67275;DHT22;55463;52.324;5.122;2023-07-02T02:39:07;14.84;80.20
67275;DHT22;55463;52.324;5.122;2023-07-02T02:41:33;14.79;80.40
67275;DHT22;55463;52.324;5.122;2023-07-02T02:43:58;14.79;80.50
67275;DHT22;55463;52.324;5.122;2023-07-02T02:46:23;14.77;80.56
67275;DHT22;55463;52.324;5.122;2023-07-02T02:48:49;14.72;80.64
67275;DHT22;55463;52.324;5.122;2023-07-02T02:51:15;14.72;80.69
67275;DHT22;55463;52.324;5.122;2023-07-02T02:53:40;14.69;80.47
67275;DHT22;55463;52.324;5.122;2023-07-02T02:56:06;14.63;80.84
67275;DHT22;55463;52.324;5.122;2023-07-02T02:58:31;14.60;81.41
67275;DHT22;55463;52.324;5.122;2023-07-02T03:00:57;14.59;81.45
67275;DHT22;55463;52.324;5.122;2023-07-02T03:03:22;14.52;81.75
67275;DHT22;55463;52.324;5.122;2023-07-02T03:05:50;14.50;81.65
67275;DHT22;55463;52.324;5.122;2023-07-02T03:08:15;14.48;82.04
67275;DHT22;55463;52.324;5.122;2023-07-02T03:10:41;14.46;81.85
67275;DHT22;55463;52.324;5.122;2023-07-02T03:13:07;14.43;81.87
67275;DHT22;55463;52.324;5.122;2023-07-02T03:15:32;14.46;81.73
67275;DHT22;55463;52.324;5.122;2023-07-02T03:17:58;14.46;82.02
67275;DHT22;55463;52.324;5.122;2023-07-02T03:20:23;14.46;81.82
67275;DHT22;55463;52.324;5.122;2023-07-02T03:22:49;14.45;81.96
67275;DHT22;55463;52.324;5.122;2023-07-02T03:25:15;14.46;81.75
67275;DHT22;55463;52.324;5.122;2023-07-02T03:27:41;14.48;81.79
67275;DHT22;55463;52.324;5.122;2023-07-02T03:30:07;14.50;81.68
67275;DHT22;55463;52.324;5.122;2023-07-02T03:32:32;14.49;81.67
67275;DHT22;55463;52.324;5.122;2023-07-02T03:34:58;14.52;81.77
67275;DHT22;55463;52.324;5.122;2023-07-02T03:37:23;14.49;81.62
67275;DHT22;55463;52.324;5.122;2023-07-02T03:39:48;14.48;81.67
67275;DHT22;55463;52.324;5.122;2023-07-02T03:42:14;14.46;81.60
67275;DHT22;55463;52.324;5.122;2023-07-02T03:44:39;14.42;81.78
67275;DHT22;55463;52.324;5.122;2023-07-02T03:47:05;14.46;81.71
67275;DHT22;55463;52.324;5.122;2023-07-02T03:49:33;14.43;81.68
67275;DHT22;55463;52.324;5.122;2023-07-02T03:51:59;14.42;81.59
67275;DHT22;55463;52.324;5.122;2023-07-02T03:54:24;14.41;81.71
67275;DHT22;55463;52.324;5.122;2023-07-02T03:56:49;14.36;81.70
67275;DHT22;55463;52.324;5.122;2023-07-02T03:59:15;14.38;81.77
67275;DHT22;55463;52.324;5.122;2023-07-02T04:01:40;14.38;81.96
67275;DHT22;55463;52.324;5.122;2023-07-02T04:04:06;14.36;81.79
67275;DHT22;55463;52.324;5.122;2023-07-02T04:06:32;14.42;81.99
67275;DHT22;55463;52.324;5.122;2023-07-02T04:08:59;14.41;81.97
67275;DHT22;55463;52.324;5.122;2023-07-02T04:11:24;14.39;82.10
67275;DHT22;55463;52.324;5.122;2023-07-02T04:13:50;14.43;82.27
67275;DHT22;55463;52.324;5.122;2023-07-02T04:16:15;14.42;82.35
67275;DHT22;55463;52.324;5.122;2023-07-02T04:18:41;14.46;82.30
67275;DHT22;55463;52.324;5.122;2023-07-02T04:21:06;14.49;82.43
67275;DHT22;55463;52.324;5.122;2023-07-02T04:23:31;14.52;82.64
67275;DHT22;55463;52.324;5.122;2023-07-02T04:25:57;14.52;82.82
67275;DHT22;55463;52.324;5.122;2023-07-02T04:28:22;14.50;82.80
67275;DHT22;55463;52.324;5.122;2023-07-02T04:30:48;14.55;83.04
67275;DHT22;55463;52.324;5.122;2023-07-02T04:33:15;14.59;83.01
67275;DHT22;55463;52.324;5.122;2023-07-02T04:35:40;14.62;83.37
67275;DHT22;55463;52.324;5.122;2023-07-02T04:38:06;14.65;83.06
67275;DHT22;55463;52.324;5.122;2023-07-02T04:40:32;14.69;83.22
67275;DHT22;55463;52.324;5.122;2023-07-02T04:42:58;14.70;83.09
67275;DHT22;55463;52.324;5.122;2023-07-02T04:45:24;14.76;83.42
67275;DHT22;55463;52.324;5.122;2023-07-02T04:47:50;14.76;83.34
67275;DHT22;55463;52.324;5.122;2023-07-02T04:50:19;14.79;83.45
67275;DHT22;55463;52.324;5.122;2023-07-02T04:52:45;14.83;83.55
67275;DHT22;55463;52.324;5.122;2023-07-02T04:55:10;14.86;83.21
67275;DHT22;55463;52.324;5.122;2023-07-02T04:57:36;14.91;83.15
67275;DHT22;55463;52.324;5.122;2023-07-02T05:00:05;14.95;83.51
67275;DHT22;55463;52.324;5.122;2023-07-02T05:02:31;15.01;83.18
67275;DHT22;55463;52.324;5.122;2023-07-02T05:04:57;15.07;83.44
67275;DHT22;55463;52.324;5.122;2023-07-02T05:07:22;15.15;83.02
67275;DHT22;55463;52.324;5.122;2023-07-02T05:09:49;15.21;82.86
67275;DHT22;55463;52.324;5.122;2023-07-02T05:12:17;15.24;82.67
67275;DHT22;55463;52.324;5.122;2023-07-02T05:14:42;15.27;82.89
67275;DHT22;55463;52.324;5.122;2023-07-02T05:17:07;15.32;82.61
67275;DHT22;55463;52.324;5.122;2023-07-02T05:19:33;15.42;82.66
67275;DHT22;55463;52.324;5.122;2023-07-02T05:21:58;15.50;82.84
67275;DHT22;55463;52.324;5.122;2023-07-02T05:24:24;15.55;82.58
67275;DHT22;55463;52.324;5.122;2023-07-02T05:26:49;15.63;81.61
67275;DHT22;55463;52.324;5.122;2023-07-02T05:29:16;15.74;82.15
67275;DHT22;55463;52.324;5.122;2023-07-02T05:31:42;15.89;81.56
67275;DHT22;55463;52.324;5.122;2023-07-02T05:34:07;15.90;81.38
67275;DHT22;55463;52.324;5.122;2023-07-02T05:36:32;16.03;80.93
67275;DHT22;55463;52.324;5.122;2023-07-02T05:38:59;16.11;80.66
67275;DHT22;55463;52.324;5.122;2023-07-02T05:41:25;16.22;80.87
67275;DHT22;55463;52.324;5.122;2023-07-02T05:43:55;16.31;80.18
67275;DHT22;55463;52.324;5.122;2023-07-02T05:46:21;16.46;81.23
67275;DHT22;55463;52.324;5.122;2023-07-02T05:48:46;16.56;79.52
67275;DHT22;55463;52.324;5.122;2023-07-02T05:51:12;16.62;78.89
67275;DHT22;55463;52.324;5.122;2023-07-02T05:53:37;16.76;78.87
67275;DHT22;55463;52.324;5.122;2023-07-02T05:56:03;16.80;78.12
67275;DHT22;55463;52.324;5.122;2023-07-02T05:58:28;16.99;78.81
67275;DHT22;55463;52.324;5.122;2023-07-02T06:00:55;17.04;78.44
67275;DHT22;55463;52.324;5.122;2023-07-02T06:03:20;17.17;77.42
67275;DHT22;55463;52.324;5.122;2023-07-02T06:05:49;17.20;77.01
67275;DHT22;55463;52.324;5.122;2023-07-02T06:08:16;17.36;77.48
67275;DHT22;55463;52.324;5.122;2023-07-02T06:10:42;17.42;75.86
67275;DHT22;55463;52.324;5.122;2023-07-02T06:13:08;17.49;76.34
67275;DHT22;55463;52.324;5.122;2023-07-02T06:15:33;17.66;76.88
67275;DHT22;55463;52.324;5.122;2023-07-02T06:17:59;17.97;75.91
67275;DHT22;55463;52.324;5.122;2023-07-02T06:20:24;18.05;74.91
67275;DHT22;55463;52.324;5.122;2023-07-02T06:22:49;18.18;75.03
67275;DHT22;55463;52.324;5.122;2023-07-02T06:25:15;18.32;75.44
67275;DHT22;55463;52.324;5.122;2023-07-02T06:27:40;18.35;74.34
67275;DHT22;55463;52.324;5.122;2023-07-02T06:30:06;18.29;74.43
67275;DHT22;55463;52.324;5.122;2023-07-02T06:32:32;18.28;73.57
67275;DHT22;55463;52.324;5.122;2023-07-02T06:34:57;18.34;74.15
67275;DHT22;55463;52.324;5.122;2023-07-02T06:37:23;18.48;72.70
67275;DHT22;55463;52.324;5.122;2023-07-02T06:39:48;18.60;72.86
67275;DHT22;55463;52.324;5.122;2023-07-02T06:42:14;18.87;73.15
67275;DHT22;55463;52.324;5.122;2023-07-02T06:44:40;18.83;71.72
67275;DHT22;55463;52.324;5.122;2023-07-02T06:47:06;18.97;72.52
67275;DHT22;55463;52.324;5.122;2023-07-02T06:49:31;18.98;71.26
67275;DHT22;55463;52.324;5.122;2023-07-02T06:51:57;19.18;71.38
67275;DHT22;55463;52.324;5.122;2023-07-02T06:54:22;19.44;70.99
67275;DHT22;55463;52.324;5.122;2023-07-02T06:56:48;19.53;69.23
67275;DHT22;55463;52.324;5.122;2023-07-02T06:59:19;19.61;69.63
67275;DHT22;55463;52.324;5.122;2023-07-02T07:01:45;19.48;70.93
67275;DHT22;55463;52.324;5.122;2023-07-02T07:04:10;19.08;70.34
67275;DHT22;55463;52.324;5.122;2023-07-02T07:06:35;18.91;71.38
67275;DHT22;55463;52.324;5.122;2023-07-02T07:09:02;18.87;70.57
67275;DHT22;55463;52.324;5.122;2023-07-02T07:11:28;19.38;71.04
67275;DHT22;55463;52.324;5.122;2023-07-02T07:13:53;19.70;70.27
67275;DHT22;55463;52.324;5.122;2023-07-02T07:16:18;19.51;68.79
67275;DHT22;55463;52.324;5.122;2023-07-02T07:18:44;19.80;68.83
67275;DHT22;55463;52.324;5.122;2023-07-02T07:21:10;20.06;67.23
67275;DHT22;55463;52.324;5.122;2023-07-02T07:23:35;20.39;67.07
67275;DHT22;55463;52.324;5.122;2023-07-02T07:26:01;20.57;65.33
67275;DHT22;55463;52.324;5.122;2023-07-02T07:28:26;20.57;64.03
67275;DHT22;55463;52.324;5.122;2023-07-02T07:30:51;20.65;64.79
67275;DHT22;55463;52.324;5.122;2023-07-02T07:33:17;20.56;64.62
67275;DHT22;55463;52.324;5.122;2023-07-02T07:35:42;20.17;66.22
67275;DHT22;55463;52.324;5.122;2023-07-02T07:38:08;19.93;66.79
67275;DHT22;55463;52.324;5.122;2023-07-02T07:40:33;20.49;68.40
67275;DHT22;55463;52.324;5.122;2023-07-02T07:42:59;21.05;67.14
67275;DHT22;55463;52.324;5.122;2023-07-02T07:45:24;21.24;65.41
67275;DHT22;55463;52.324;5.122;2023-07-02T07:47:49;20.96;65.38
67275;DHT22;55463;52.324;5.122;2023-07-02T07:50:15;21.11;64.85
67275;DHT22;55463;52.324;5.122;2023-07-02T07:52:43;21.25;65.02
67275;DHT22;55463;52.324;5.122;2023-07-02T07:55:09;21.22;63.60
67275;DHT22;55463;52.324;5.122;2023-07-02T07:57:36;21.75;64.94
67275;DHT22;55463;52.324;5.122;2023-07-02T08:00:03;21.82;63.99
67275;DHT22;55463;52.324;5.122;2023-07-02T08:02:30;22.07;63.25
67275;DHT22;55463;52.324;5.122;2023-07-02T08:04:55;21.86;62.01
67275;DHT22;55463;52.324;5.122;2023-07-02T08:07:21;21.73;62.39
67275;DHT22;55463;52.324;5.122;2023-07-02T08:09:47;21.86;62.37
67275;DHT22;55463;52.324;5.122;2023-07-02T08:12:13;21.63;60.90
67275;DHT22;55463;52.324;5.122;2023-07-02T08:14:38;21.50;61.77
67275;DHT22;55463;52.324;5.122;2023-07-02T08:17:03;21.82;61.48
67275;DHT22;55463;52.324;5.122;2023-07-02T08:19:29;22.05;60.35
67275;DHT22;55463;52.324;5.122;2023-07-02T08:21:54;22.45;61.72
67275;DHT22;55463;52.324;5.122;2023-07-02T08:24:20;22.18;60.63
67275;DHT22;55463;52.324;5.122;2023-07-02T08:26:45;22.62;60.12
67275;DHT22;55463;52.324;5.122;2023-07-02T08:29:12;21.65;60.23
67275;DHT22;55463;52.324;5.122;2023-07-02T08:31:37;22.24;61.30
67275;DHT22;55463;52.324;5.122;2023-07-02T08:34:03;21.72;59.66
67275;DHT22;55463;52.324;5.122;2023-07-02T08:36:28;21.75;61.75
67275;DHT22;55463;52.324;5.122;2023-07-02T08:38:54;21.89;61.55
67275;DHT22;55463;52.324;5.122;2023-07-02T08:41:20;22.28;61.33
67275;DHT22;55463;52.324;5.122;2023-07-02T08:43:46;21.96;61.50
67275;DHT22;55463;52.324;5.122;2023-07-02T08:46:15;21.93;61.92
67275;DHT22;55463;52.324;5.122;2023-07-02T08:48:41;22.42;61.51
67275;DHT22;55463;52.324;5.122;2023-07-02T08:51:07;22.83;60.17
67275;DHT22;55463;52.324;5.122;2023-07-02T08:53:32;23.01;60.47
67275;DHT22;55463;52.324;5.122;2023-07-02T08:56:00;23.29;58.66
67275;DHT22;55463;52.324;5.122;2023-07-02T08:58:25;23.24;58.00
67275;DHT22;55463;52.324;5.122;2023-07-02T09:01:05;22.75;58.75
67275;DHT22;55463;52.324;5.122;2023-07-02T09:03:31;22.80;58.77
67275;DHT22;55463;52.324;5.122;2023-07-02T09:05:56;22.60;59.99
67275;DHT22;55463;52.324;5.122;2023-07-02T09:08:25;22.38;59.94
67275;DHT22;55463;52.324;5.122;2023-07-02T09:10:51;21.94;61.08
67275;DHT22;55463;52.324;5.122;2023-07-02T09:13:17;22.31;61.78
67275;DHT22;55463;52.324;5.122;2023-07-02T09:15:42;22.34;60.51
67275;DHT22;55463;52.324;5.122;2023-07-02T09:18:15;22.32;59.54
67275;DHT22;55463;52.324;5.122;2023-07-02T09:20:44;22.63;59.72
67275;DHT22;55463;52.324;5.122;2023-07-02T09:23:09;23.20;58.88
67275;DHT22;55463;52.324;5.122;2023-07-02T09:25:39;23.12;57.44
67275;DHT22;55463;52.324;5.122;2023-07-02T09:28:19;23.86;58.62
67275;DHT22;55463;52.324;5.122;2023-07-02T09:30:51;24.06;54.50
67275;DHT22;55463;52.324;5.122;2023-07-02T09:33:17;23.55;55.10
67275;DHT22;55463;52.324;5.122;2023-07-02T09:35:42;23.11;56.91
67275;DHT22;55463;52.324;5.122;2023-07-02T09:38:10;22.94;57.82
67275;DHT22;55463;52.324;5.122;2023-07-02T09:40:38;22.34;59.31
67275;DHT22;55463;52.324;5.122;2023-07-02T09:43:07;21.83;60.03
67275;DHT22;55463;52.324;5.122;2023-07-02T09:45:33;22.76;59.25
67275;DHT22;55463;52.324;5.122;2023-07-02T09:47:59;22.73;59.22
67275;DHT22;55463;52.324;5.122;2023-07-02T09:50:24;22.96;57.69
67275;DHT22;55463;52.324;5.122;2023-07-02T09:52:50;22.22;58.68
67275;DHT22;55463;52.324;5.122;2023-07-02T09:55:16;22.05;59.75
67275;DHT22;55463;52.324;5.122;2023-07-02T09:57:43;22.80;60.25
67275;DHT22;55463;52.324;5.122;2023-07-02T10:00:10;23.51;57.53
67275;DHT22;55463;52.324;5.122;2023-07-02T10:02:35;23.87;55.16
67275;DHT22;55463;52.324;5.122;2023-07-02T10:05:01;23.28;54.71
67275;DHT22;55463;52.324;5.122;2023-07-02T10:07:31;23.45;55.70
67275;DHT22;55463;52.324;5.122;2023-07-02T10:10:00;23.46;55.23
67275;DHT22;55463;52.324;5.122;2023-07-02T10:12:29;23.73;55.67
67275;DHT22;55463;52.324;5.122;2023-07-02T10:14:56;23.62;56.70
67275;DHT22;55463;52.324;5.122;2023-07-02T10:17:34;23.80;55.92
67275;DHT22;55463;52.324;5.122;2023-07-02T10:20:02;24.38;54.83
67275;DHT22;55463;52.324;5.122;2023-07-02T10:22:50;24.31;53.15
67275;DHT22;55463;52.324;5.122;2023-07-02T10:25:44;24.38;54.10
67275;DHT22;55463;52.324;5.122;2023-07-02T10:28:20;23.82;54.28
67275;DHT22;55463;52.324;5.122;2023-07-02T10:30:52;23.58;54.80
67275;DHT22;55463;52.324;5.122;2023-07-02T10:33:19;23.45;55.68
67275;DHT22;55463;52.324;5.122;2023-07-02T10:35:47;23.80;54.51
67275;DHT22;55463;52.324;5.122;2023-07-02T10:38:17;23.97;53.57
67275;DHT22;55463;52.324;5.122;2023-07-02T10:40:44;23.86;52.76
67275;DHT22;55463;52.324;5.122;2023-07-02T10:43:09;23.99;53.68
67275;DHT22;55463;52.324;5.122;2023-07-02T10:45:35;24.10;55.17
67275;DHT22;55463;52.324;5.122;2023-07-02T10:48:02;23.31;55.12
67275;DHT22;55463;52.324;5.122;2023-07-02T10:50:30;23.56;54.76
67275;DHT22;55463;52.324;5.122;2023-07-02T10:52:55;23.77;53.93
67275;DHT22;55463;52.324;5.122;2023-07-02T10:55:23;23.89;53.23
67275;DHT22;55463;52.324;5.122;2023-07-02T10:57:49;23.66;54.03
67275;DHT22;55463;52.324;5.122;2023-07-02T11:00:18;23.37;54.67
67275;DHT22;55463;52.324;5.122;2023-07-02T11:02:44;22.97;53.23
67275;DHT22;55463;52.324;5.122;2023-07-02T11:05:09;22.60;54.71
67275;DHT22;55463;52.324;5.122;2023-07-02T11:07:39;22.32;55.46
67275;DHT22;55463;52.324;5.122;2023-07-02T11:10:06;22.89;54.51
67275;DHT22;55463;52.324;5.122;2023-07-02T11:12:31;23.49;52.69
67275;DHT22;55463;52.324;5.122;2023-07-02T11:15:16;23.17;52.42
67275;DHT22;55463;52.324;5.122;2023-07-02T11:17:45;23.10;52.60
67275;DHT22;55463;52.324;5.122;2023-07-02T11:20:12;22.79;52.22
67275;DHT22;55463;52.324;5.122;2023-07-02T11:22:38;23.25;52.06
67275;DHT22;55463;52.324;5.122;2023-07-02T11:25:15;23.51;50.83
67275;DHT22;55463;52.324;5.122;2023-07-02T11:27:42;23.03;50.72
67275;DHT22;55463;52.324;5.122;2023-07-02T11:30:07;22.73;52.34
67275;DHT22;55463;52.324;5.122;2023-07-02T11:32:52;22.93;53.12
67275;DHT22;55463;52.324;5.122;2023-07-02T11:35:18;22.52;51.63
67275;DHT22;55463;52.324;5.122;2023-07-02T11:37:44;22.52;52.83
67275;DHT22;55463;52.324;5.122;2023-07-02T11:40:11;22.41;52.47
67275;DHT22;55463;52.324;5.122;2023-07-02T11:42:36;22.20;53.07
67275;DHT22;55463;52.324;5.122;2023-07-02T11:45:02;22.63;52.88
67275;DHT22;55463;52.324;5.122;2023-07-02T11:47:27;22.90;52.76
67275;DHT22;55463;52.324;5.122;2023-07-02T11:49:53;23.00;53.36
67275;DHT22;55463;52.324;5.122;2023-07-02T11:52:20;23.00;52.14
67275;DHT22;55463;52.324;5.122;2023-07-02T11:54:46;23.18;51.26
67275;DHT22;55463;52.324;5.122;2023-07-02T11:57:11;23.32;49.93
67275;DHT22;55463;52.324;5.122;2023-07-02T11:59:37;23.25;50.05
67275;DHT22;55463;52.324;5.122;2023-07-02T12:02:03;23.34;51.28
67275;DHT22;55463;52.324;5.122;2023-07-02T12:04:29;23.01;51.45
67275;DHT22;55463;52.324;5.122;2023-07-02T12:06:54;23.73;51.89
67275;DHT22;55463;52.324;5.122;2023-07-02T12:09:19;24.11;49.67
67275;DHT22;55463;52.324;5.122;2023-07-02T12:11:45;23.72;48.51
67275;DHT22;55463;52.324;5.122;2023-07-02T12:14:11;23.62;49.59
67275;DHT22;55463;52.324;5.122;2023-07-02T12:16:37;23.59;50.28
67275;DHT22;55463;52.324;5.122;2023-07-02T12:19:02;23.72;49.36
67275;DHT22;55463;52.324;5.122;2023-07-02T12:21:28;24.48;51.03
67275;DHT22;55463;52.324;5.122;2023-07-02T12:23:53;25.14;50.65
67275;DHT22;55463;52.324;5.122;2023-07-02T12:26:18;24.75;48.94
67275;DHT22;55463;52.324;5.122;2023-07-02T12:28:44;24.18;48.49
67275;DHT22;55463;52.324;5.122;2023-07-02T12:31:09;23.72;49.40
67275;DHT22;55463;52.324;5.122;2023-07-02T12:33:35;24.13;49.82
67275;DHT22;55463;52.324;5.122;2023-07-02T12:36:01;23.94;49.94
67275;DHT22;55463;52.324;5.122;2023-07-02T12:38:28;23.49;50.19
67275;DHT22;55463;52.324;5.122;2023-07-02T12:40:53;23.55;49.76
67275;DHT22;55463;52.324;5.122;2023-07-02T12:43:19;23.96;50.87
67275;DHT22;55463;52.324;5.122;2023-07-02T12:45:45;23.70;49.51
67275;DHT22;55463;52.324;5.122;2023-07-02T12:48:10;23.55;49.43
67275;DHT22;55463;52.324;5.122;2023-07-02T12:50:37;23.11;49.42
67275;DHT22;55463;52.324;5.122;2023-07-02T12:53:03;23.12;50.46
67275;DHT22;55463;52.324;5.122;2023-07-02T12:55:29;22.53;51.56
67275;DHT22;55463;52.324;5.122;2023-07-02T12:57:55;23.00;51.23
67275;DHT22;55463;52.324;5.122;2023-07-02T13:00:20;23.54;48.57
67275;DHT22;55463;52.324;5.122;2023-07-02T13:02:46;23.77;50.17
67275;DHT22;55463;52.324;5.122;2023-07-02T13:05:12;23.56;50.76
67275;DHT22;55463;52.324;5.122;2023-07-02T13:07:38;23.18;50.80
67275;DHT22;55463;52.324;5.122;2023-07-02T13:10:04;22.93;52.54
67275;DHT22;55463;52.324;5.122;2023-07-02T13:12:29;22.73;53.19
67275;DHT22;55463;52.324;5.122;2023-07-02T13:14:55;22.77;52.85
67275;DHT22;55463;52.324;5.122;2023-07-02T13:17:20;22.75;52.79
67275;DHT22;55463;52.324;5.122;2023-07-02T13:19:46;22.49;50.85
67275;DHT22;55463;52.324;5.122;2023-07-02T13:22:12;22.90;52.02
67275;DHT22;55463;52.324;5.122;2023-07-02T13:24:37;23.70;52.73
67275;DHT22;55463;52.324;5.122;2023-07-02T13:27:05;24.01;51.86
67275;DHT22;55463;52.324;5.122;2023-07-02T13:29:32;24.37;52.02
67275;DHT22;55463;52.324;5.122;2023-07-02T13:31:57;24.21;51.05
67275;DHT22;55463;52.324;5.122;2023-07-02T13:34:23;24.63;50.50
67275;DHT22;55463;52.324;5.122;2023-07-02T13:36:48;24.86;49.13
67275;DHT22;55463;52.324;5.122;2023-07-02T13:39:14;24.54;47.55
67275;DHT22;55463;52.324;5.122;2023-07-02T13:41:39;24.55;47.32
67275;DHT22;55463;52.324;5.122;2023-07-02T13:44:04;24.34;47.85
67275;DHT22;55463;52.324;5.122;2023-07-02T13:46:30;24.37;49.31
67275;DHT22;55463;52.324;5.122;2023-07-02T13:48:56;24.69;47.58
67275;DHT22;55463;52.324;5.122;2023-07-02T13:51:21;24.91;47.53
67275;DHT22;55463;52.324;5.122;2023-07-02T13:53:46;24.86;47.41
67275;DHT22;55463;52.324;5.122;2023-07-02T13:56:12;25.04;48.15
67275;DHT22;55463;52.324;5.122;2023-07-02T14:01:21;24.21;47.97
67275;DHT22;55463;52.324;5.122;2023-07-02T14:03:47;23.48;48.66
67275;DHT22;55463;52.324;5.122;2023-07-02T14:06:12;23.45;49.91
67275;DHT22;55463;52.324;5.122;2023-07-02T14:08:38;23.94;49.21
67275;DHT22;55463;52.324;5.122;2023-07-02T14:11:03;24.11;48.64
67275;DHT22;55463;52.324;5.122;2023-07-02T14:13:29;24.94;49.90
67275;DHT22;55463;52.324;5.122;2023-07-02T14:15:54;24.84;48.42
67275;DHT22;55463;52.324;5.122;2023-07-02T14:18:20;24.17;46.97
67275;DHT22;55463;52.324;5.122;2023-07-02T14:20:45;23.69;47.24
67275;DHT22;55463;52.324;5.122;2023-07-02T14:23:10;23.93;47.95
67275;DHT22;55463;52.324;5.122;2023-07-02T14:25:36;23.61;48.82
67275;DHT22;55463;52.324;5.122;2023-07-02T14:28:01;24.03;49.60
67275;DHT22;55463;52.324;5.122;2023-07-02T14:30:27;23.90;46.25
67275;DHT22;55463;52.324;5.122;2023-07-02T14:32:52;23.56;45.11
67275;DHT22;55463;52.324;5.122;2023-07-02T14:35:18;24.07;46.52
67275;DHT22;55463;52.324;5.122;2023-07-02T14:37:47;23.99;45.27
67275;DHT22;55463;52.324;5.122;2023-07-02T14:40:12;23.51;45.95
67275;DHT22;55463;52.324;5.122;2023-07-02T14:42:38;22.76;46.67
67275;DHT22;55463;52.324;5.122;2023-07-02T14:45:04;22.69;47.88
67275;DHT22;55463;52.324;5.122;2023-07-02T14:47:29;22.63;49.22
67275;DHT22;55463;52.324;5.122;2023-07-02T14:49:55;22.63;49.86
67275;DHT22;55463;52.324;5.122;2023-07-02T14:52:20;22.44;49.78
67275;DHT22;55463;52.324;5.122;2023-07-02T14:54:46;22.66;50.55
67275;DHT22;55463;52.324;5.122;2023-07-02T14:57:11;23.12;50.38
67275;DHT22;55463;52.324;5.122;2023-07-02T14:59:37;22.83;48.97
67275;DHT22;55463;52.324;5.122;2023-07-02T15:02:02;23.07;49.42
67275;DHT22;55463;52.324;5.122;2023-07-02T15:04:28;22.73;50.09
67275;DHT22;55463;52.324;5.122;2023-07-02T15:06:53;22.39;50.81
67275;DHT22;55463;52.324;5.122;2023-07-02T15:09:19;22.37;51.63
67275;DHT22;55463;52.324;5.122;2023-07-02T15:11:44;22.80;51.52
67275;DHT22;55463;52.324;5.122;2023-07-02T15:14:10;22.58;51.39
67275;DHT22;55463;52.324;5.122;2023-07-02T15:16:35;22.66;50.05
67275;DHT22;55463;52.324;5.122;2023-07-02T15:19:00;22.79;49.45
67275;DHT22;55463;52.324;5.122;2023-07-02T15:21:26;23.21;50.55
67275;DHT22;55463;52.324;5.122;2023-07-02T15:23:51;23.35;50.41
67275;DHT22;55463;52.324;5.122;2023-07-02T15:26:17;22.83;49.19